sensor_id;sensor_type;location;lat;lon;timestamp;P1;durP1;ratioP1;P2;durP2;ratioP2
69754;SDS011;57023;52.218;5.158;2023-05-07T00:01:48;51.30;;;27.55;;
69754;SDS011;57023;52.218;5.158;2023-05-07T00:04:13;49.72;;;26.02;;
69754;SDS011;57023;52.218;5.158;2023-05-07T00:06:38;49.42;;;26.98;;
69754;SDS011;57023;52.218;5.158;2023-05-07T00:09:04;44.47;;;25.45;;
69754;SDS011;57023;52.218;5.158;2023-05-07T00:11:30;46.58;;;25.73;;
69754;SDS011;57023;52.218;5.158;2023-05-07T00:13:56;48.97;;;26.35;;
69754;SDS011;57023;52.218;5.158;2023-05-07T00:16:21;47.63;;;26.77;;
69754;SDS011;57023;52.218;5.158;2023-05-07T00:18:47;45.42;;;25.27;;
69754;SDS011;57023;52.218;5.158;2023-05-07T00:21:12;49.30;;;25.23;;
69754;SDS011;57023;52.218;5.158;2023-05-07T00:23:38;51.30;;;26.75;;
69754;SDS011;57023;52.218;5.158;2023-05-07T00:26:04;45.85;;;25.50;;
69754;SDS011;57023;52.218;5.158;2023-05-07T00:28:30;44.58;;;26.23;;
69754;SDS011;57023;52.218;5.158;2023-05-07T00:30:55;38.63;;;24.48;;
69754;SDS011;57023;52.218;5.158;2023-05-07T00:33:21;42.10;;;25.05;;
69754;SDS011;57023;52.218;5.158;2023-05-07T00:35:47;42.50;;;24.92;;
69754;SDS011;57023;52.218;5.158;2023-05-07T00:38:12;40.38;;;24.50;;
69754;SDS011;57023;52.218;5.158;2023-05-07T00:40:38;40.95;;;25.13;;
69754;SDS011;57023;52.218;5.158;2023-05-07T00:43:03;39.90;;;24.20;;
69754;SDS011;57023;52.218;5.158;2023-05-07T00:45:28;37.58;;;24.33;;
69754;SDS011;57023;52.218;5.158;2023-05-07T00:47:59;38.63;;;23.27;;
69754;SDS011;57023;52.218;5.158;2023-05-07T00:50:25;36.83;;;23.58;;
69754;SDS011;57023;52.218;5.158;2023-05-07T00:52:51;37.88;;;24.40;;
69754;SDS011;57023;52.218;5.158;2023-05-07T00:55:17;33.63;;;22.98;;
69754;SDS011;57023;52.218;5.158;2023-05-07T00:57:43;37.03;;;22.67;;
69754;SDS011;57023;52.218;5.158;2023-05-07T01:00:09;39.05;;;23.63;;
69754;SDS011;57023;52.218;5.158;2023-05-07T01:02:35;33.33;;;23.10;;
69754;SDS011;57023;52.218;5.158;2023-05-07T01:05:01;33.00;;;22.05;;
69754;SDS011;57023;52.218;5.158;2023-05-07T01:07:28;33.38;;;22.23;;
69754;SDS011;57023;52.218;5.158;2023-05-07T01:09:53;34.33;;;23.20;;
69754;SDS011;57023;52.218;5.158;2023-05-07T01:12:19;34.80;;;22.65;;
69754;SDS011;57023;52.218;5.158;2023-05-07T01:14:44;35.60;;;22.48;;
69754;SDS011;57023;52.218;5.158;2023-05-07T01:17:10;29.77;;;21.65;;
69754;SDS011;57023;52.218;5.158;2023-05-07T01:19:35;36.72;;;22.23;;
69754;SDS011;57023;52.218;5.158;2023-05-07T01:22:02;28.88;;;20.83;;
69754;SDS011;57023;52.218;5.158;2023-05-07T01:24:29;35.20;;;21.90;;
69754;SDS011;57023;52.218;5.158;2023-05-07T01:26:56;30.08;;;20.45;;
69754;SDS011;57023;52.218;5.158;2023-05-07T01:29:21;32.55;;;21.60;;
69754;SDS011;57023;52.218;5.158;2023-05-07T01:31:47;27.27;;;19.65;;
69754;SDS011;57023;52.218;5.158;2023-05-07T01:34:15;30.38;;;20.42;;
69754;SDS011;57023;52.218;5.158;2023-05-07T01:36:42;28.33;;;20.88;;
69754;SDS011;57023;52.218;5.158;2023-05-07T01:39:08;31.33;;;20.38;;
69754;SDS011;57023;52.218;5.158;2023-05-07T01:41:34;28.95;;;20.13;;
69754;SDS011;57023;52.218;5.158;2023-05-07T01:43:59;31.00;;;20.02;;
69754;SDS011;57023;52.218;5.158;2023-05-07T01:46:29;26.55;;;19.42;;
69754;SDS011;57023;52.218;5.158;2023-05-07T01:48:55;28.83;;;19.63;;
69754;SDS011;57023;52.218;5.158;2023-05-07T01:51:20;28.08;;;19.85;;
69754;SDS011;57023;52.218;5.158;2023-05-07T01:53:47;24.75;;;18.60;;
69754;SDS011;57023;52.218;5.158;2023-05-07T01:56:15;25.70;;;19.15;;
69754;SDS011;57023;52.218;5.158;2023-05-07T01:58:41;26.85;;;18.80;;
69754;SDS011;57023;52.218;5.158;2023-05-07T02:01:06;28.40;;;19.65;;
69754;SDS011;57023;52.218;5.158;2023-05-07T02:03:32;26.55;;;19.92;;
69754;SDS011;57023;52.218;5.158;2023-05-07T02:05:57;27.10;;;19.40;;
69754;SDS011;57023;52.218;5.158;2023-05-07T02:08:22;27.70;;;19.73;;
69754;SDS011;57023;52.218;5.158;2023-05-07T02:10:48;29.77;;;19.60;;
69754;SDS011;57023;52.218;5.158;2023-05-07T02:13:15;27.80;;;19.23;;
69754;SDS011;57023;52.218;5.158;2023-05-07T02:15:40;28.77;;;19.60;;
69754;SDS011;57023;52.218;5.158;2023-05-07T02:18:07;25.60;;;18.45;;
69754;SDS011;57023;52.218;5.158;2023-05-07T02:20:33;27.40;;;18.45;;
69754;SDS011;57023;52.218;5.158;2023-05-07T02:22:59;23.20;;;18.45;;
69754;SDS011;57023;52.218;5.158;2023-05-07T02:25:25;24.63;;;18.23;;
69754;SDS011;57023;52.218;5.158;2023-05-07T02:27:50;24.88;;;17.58;;
69754;SDS011;57023;52.218;5.158;2023-05-07T02:30:16;25.75;;;18.75;;
69754;SDS011;57023;52.218;5.158;2023-05-07T02:32:41;27.10;;;18.80;;
69754;SDS011;57023;52.218;5.158;2023-05-07T02:35:06;27.67;;;18.27;;
69754;SDS011;57023;52.218;5.158;2023-05-07T02:37:32;25.63;;;18.42;;
69754;SDS011;57023;52.218;5.158;2023-05-07T02:39:57;26.10;;;18.98;;
69754;SDS011;57023;52.218;5.158;2023-05-07T02:42:22;26.55;;;17.73;;
69754;SDS011;57023;52.218;5.158;2023-05-07T02:44:48;28.15;;;19.35;;
69754;SDS011;57023;52.218;5.158;2023-05-07T02:47:16;26.58;;;18.33;;
69754;SDS011;57023;52.218;5.158;2023-05-07T02:49:41;26.02;;;18.50;;
69754;SDS011;57023;52.218;5.158;2023-05-07T02:52:07;24.75;;;17.98;;
69754;SDS011;57023;52.218;5.158;2023-05-07T02:54:32;25.83;;;18.98;;
69754;SDS011;57023;52.218;5.158;2023-05-07T02:56:58;24.48;;;18.15;;
69754;SDS011;57023;52.218;5.158;2023-05-07T02:59:23;28.27;;;18.98;;
69754;SDS011;57023;52.218;5.158;2023-05-07T03:01:49;30.13;;;19.90;;
69754;SDS011;57023;52.218;5.158;2023-05-07T03:04:14;26.98;;;19.25;;
69754;SDS011;57023;52.218;5.158;2023-05-07T03:06:40;28.02;;;18.85;;
69754;SDS011;57023;52.218;5.158;2023-05-07T03:09:06;26.85;;;19.25;;
69754;SDS011;57023;52.218;5.158;2023-05-07T03:11:32;26.95;;;18.90;;
69754;SDS011;57023;52.218;5.158;2023-05-07T03:13:57;29.33;;;19.50;;
69754;SDS011;57023;52.218;5.158;2023-05-07T03:16:22;25.70;;;18.35;;
69754;SDS011;57023;52.218;5.158;2023-05-07T03:18:48;28.45;;;19.17;;
69754;SDS011;57023;52.218;5.158;2023-05-07T03:21:16;25.38;;;18.10;;
69754;SDS011;57023;52.218;5.158;2023-05-07T03:23:42;29.02;;;19.10;;
69754;SDS011;57023;52.218;5.158;2023-05-07T03:26:10;27.75;;;19.08;;
69754;SDS011;57023;52.218;5.158;2023-05-07T03:28:36;29.77;;;19.88;;
69754;SDS011;57023;52.218;5.158;2023-05-07T03:31:02;30.10;;;19.45;;
69754;SDS011;57023;52.218;5.158;2023-05-07T03:33:27;28.58;;;19.83;;
69754;SDS011;57023;52.218;5.158;2023-05-07T03:35:55;31.88;;;21.33;;
69754;SDS011;57023;52.218;5.158;2023-05-07T03:38:20;28.25;;;19.15;;
69754;SDS011;57023;52.218;5.158;2023-05-07T03:40:48;29.35;;;20.13;;
69754;SDS011;57023;52.218;5.158;2023-05-07T03:43:14;31.20;;;21.00;;
69754;SDS011;57023;52.218;5.158;2023-05-07T03:45:39;30.52;;;20.60;;
69754;SDS011;57023;52.218;5.158;2023-05-07T03:48:06;34.00;;;21.13;;
69754;SDS011;57023;52.218;5.158;2023-05-07T03:50:31;30.30;;;20.90;;
69754;SDS011;57023;52.218;5.158;2023-05-07T03:52:56;30.60;;;21.30;;
69754;SDS011;57023;52.218;5.158;2023-05-07T03:55:22;28.88;;;21.63;;
69754;SDS011;57023;52.218;5.158;2023-05-07T03:57:47;34.92;;;22.25;;
69754;SDS011;57023;52.218;5.158;2023-05-07T04:00:13;33.70;;;21.67;;
69754;SDS011;57023;52.218;5.158;2023-05-07T04:02:38;33.08;;;22.17;;
69754;SDS011;57023;52.218;5.158;2023-05-07T04:05:04;32.83;;;22.05;;
69754;SDS011;57023;52.218;5.158;2023-05-07T04:07:30;31.73;;;22.55;;
69754;SDS011;57023;52.218;5.158;2023-05-07T04:09:55;33.60;;;22.80;;
69754;SDS011;57023;52.218;5.158;2023-05-07T04:12:20;33.35;;;23.05;;
69754;SDS011;57023;52.218;5.158;2023-05-07T04:14:45;31.45;;;21.70;;
69754;SDS011;57023;52.218;5.158;2023-05-07T04:17:11;33.45;;;22.33;;
69754;SDS011;57023;52.218;5.158;2023-05-07T04:19:36;31.27;;;21.92;;
69754;SDS011;57023;52.218;5.158;2023-05-07T04:22:01;31.58;;;22.98;;
69754;SDS011;57023;52.218;5.158;2023-05-07T04:24:27;32.85;;;22.13;;
69754;SDS011;57023;52.218;5.158;2023-05-07T04:26:52;32.63;;;21.67;;
69754;SDS011;57023;52.218;5.158;2023-05-07T04:29:17;33.05;;;22.65;;
69754;SDS011;57023;52.218;5.158;2023-05-07T04:31:43;30.77;;;22.15;;
69754;SDS011;57023;52.218;5.158;2023-05-07T04:34:09;35.05;;;22.55;;
69754;SDS011;57023;52.218;5.158;2023-05-07T04:36:36;34.75;;;23.38;;
69754;SDS011;57023;52.218;5.158;2023-05-07T04:39:03;33.50;;;22.55;;
69754;SDS011;57023;52.218;5.158;2023-05-07T04:41:28;32.10;;;21.75;;
69754;SDS011;57023;52.218;5.158;2023-05-07T04:43:53;30.30;;;21.45;;
69754;SDS011;57023;52.218;5.158;2023-05-07T04:46:19;30.88;;;22.05;;
69754;SDS011;57023;52.218;5.158;2023-05-07T04:48:44;33.92;;;22.20;;
69754;SDS011;57023;52.218;5.158;2023-05-07T04:51:09;33.45;;;22.48;;
69754;SDS011;57023;52.218;5.158;2023-05-07T04:53:35;31.67;;;22.13;;
69754;SDS011;57023;52.218;5.158;2023-05-07T04:56:00;30.45;;;22.67;;
69754;SDS011;57023;52.218;5.158;2023-05-07T04:58:25;29.23;;;21.73;;
69754;SDS011;57023;52.218;5.158;2023-05-07T05:00:51;29.08;;;20.95;;
69754;SDS011;57023;52.218;5.158;2023-05-07T05:03:17;31.15;;;21.13;;
69754;SDS011;57023;52.218;5.158;2023-05-07T05:05:43;30.80;;;20.57;;
69754;SDS011;57023;52.218;5.158;2023-05-07T05:08:15;29.30;;;20.42;;
69754;SDS011;57023;52.218;5.158;2023-05-07T05:10:40;27.48;;;20.33;;
69754;SDS011;57023;52.218;5.158;2023-05-07T05:13:09;25.38;;;19.67;;
69754;SDS011;57023;52.218;5.158;2023-05-07T05:15:38;25.67;;;20.08;;
69754;SDS011;57023;52.218;5.158;2023-05-07T05:18:03;26.88;;;19.70;;
69754;SDS011;57023;52.218;5.158;2023-05-07T05:20:29;26.35;;;20.42;;
69754;SDS011;57023;52.218;5.158;2023-05-07T05:22:54;22.67;;;18.35;;
69754;SDS011;57023;52.218;5.158;2023-05-07T05:25:19;24.42;;;18.50;;
69754;SDS011;57023;52.218;5.158;2023-05-07T05:27:45;25.17;;;19.25;;
69754;SDS011;57023;52.218;5.158;2023-05-07T05:30:10;26.75;;;19.23;;
69754;SDS011;57023;52.218;5.158;2023-05-07T05:32:36;25.25;;;18.95;;
69754;SDS011;57023;52.218;5.158;2023-05-07T05:35:01;25.95;;;19.38;;
69754;SDS011;57023;52.218;5.158;2023-05-07T05:37:27;26.42;;;19.58;;
69754;SDS011;57023;52.218;5.158;2023-05-07T05:39:52;25.77;;;18.98;;
69754;SDS011;57023;52.218;5.158;2023-05-07T05:42:19;27.48;;;19.25;;
69754;SDS011;57023;52.218;5.158;2023-05-07T05:44:44;26.85;;;19.98;;
69754;SDS011;57023;52.218;5.158;2023-05-07T05:47:10;26.58;;;19.33;;
69754;SDS011;57023;52.218;5.158;2023-05-07T05:49:35;24.10;;;19.20;;
69754;SDS011;57023;52.218;5.158;2023-05-07T05:52:00;25.33;;;19.38;;
69754;SDS011;57023;52.218;5.158;2023-05-07T05:54:26;27.23;;;19.45;;
69754;SDS011;57023;52.218;5.158;2023-05-07T05:56:51;27.80;;;20.05;;
69754;SDS011;57023;52.218;5.158;2023-05-07T05:59:16;28.98;;;20.67;;
69754;SDS011;57023;52.218;5.158;2023-05-07T06:01:42;27.92;;;19.95;;
69754;SDS011;57023;52.218;5.158;2023-05-07T06:04:07;26.67;;;18.27;;
69754;SDS011;57023;52.218;5.158;2023-05-07T06:06:32;26.20;;;18.98;;
69754;SDS011;57023;52.218;5.158;2023-05-07T06:08:58;26.92;;;20.00;;
69754;SDS011;57023;52.218;5.158;2023-05-07T06:11:23;26.08;;;19.13;;
69754;SDS011;57023;52.218;5.158;2023-05-07T06:13:48;27.13;;;19.70;;
69754;SDS011;57023;52.218;5.158;2023-05-07T06:16:14;27.85;;;19.08;;
69754;SDS011;57023;52.218;5.158;2023-05-07T06:18:40;26.60;;;19.85;;
69754;SDS011;57023;52.218;5.158;2023-05-07T06:21:05;25.85;;;19.67;;
69754;SDS011;57023;52.218;5.158;2023-05-07T06:23:30;30.73;;;20.27;;
69754;SDS011;57023;52.218;5.158;2023-05-07T06:25:56;27.38;;;20.10;;
69754;SDS011;57023;52.218;5.158;2023-05-07T06:28:21;27.13;;;19.85;;
69754;SDS011;57023;52.218;5.158;2023-05-07T06:30:46;27.67;;;20.35;;
69754;SDS011;57023;52.218;5.158;2023-05-07T06:33:15;30.02;;;20.33;;
69754;SDS011;57023;52.218;5.158;2023-05-07T06:35:41;30.30;;;21.10;;
69754;SDS011;57023;52.218;5.158;2023-05-07T06:38:09;25.95;;;19.67;;
69754;SDS011;57023;52.218;5.158;2023-05-07T06:40:35;27.10;;;20.20;;
69754;SDS011;57023;52.218;5.158;2023-05-07T06:43:00;27.42;;;20.05;;
69754;SDS011;57023;52.218;5.158;2023-05-07T06:45:26;28.92;;;19.67;;
69754;SDS011;57023;52.218;5.158;2023-05-07T06:47:51;31.02;;;21.95;;
69754;SDS011;57023;52.218;5.158;2023-05-07T06:50:19;28.02;;;20.67;;
69754;SDS011;57023;52.218;5.158;2023-05-07T06:52:47;28.67;;;20.45;;
69754;SDS011;57023;52.218;5.158;2023-05-07T06:55:13;29.45;;;20.48;;
69754;SDS011;57023;52.218;5.158;2023-05-07T06:57:39;30.40;;;20.92;;
69754;SDS011;57023;52.218;5.158;2023-05-07T07:00:04;27.27;;;20.52;;
69754;SDS011;57023;52.218;5.158;2023-05-07T07:02:35;34.10;;;21.02;;
69754;SDS011;57023;52.218;5.158;2023-05-07T07:05:01;27.85;;;20.50;;
69754;SDS011;57023;52.218;5.158;2023-05-07T07:07:26;27.75;;;20.58;;
69754;SDS011;57023;52.218;5.158;2023-05-07T07:09:51;30.23;;;21.38;;
69754;SDS011;57023;52.218;5.158;2023-05-07T07:12:17;29.52;;;20.98;;
69754;SDS011;57023;52.218;5.158;2023-05-07T07:17:22;31.00;;;21.40;;
69754;SDS011;57023;52.218;5.158;2023-05-07T07:19:50;29.52;;;20.65;;
69754;SDS011;57023;52.218;5.158;2023-05-07T07:22:31;26.00;;;20.27;;
69754;SDS011;57023;52.218;5.158;2023-05-07T07:24:57;25.67;;;20.13;;
69754;SDS011;57023;52.218;5.158;2023-05-07T07:27:22;24.50;;;19.40;;
69754;SDS011;57023;52.218;5.158;2023-05-07T07:29:47;24.63;;;19.92;;
69754;SDS011;57023;52.218;5.158;2023-05-07T07:32:13;26.92;;;19.98;;
69754;SDS011;57023;52.218;5.158;2023-05-07T07:34:38;24.35;;;19.65;;
69754;SDS011;57023;52.218;5.158;2023-05-07T07:37:03;24.23;;;19.63;;
69754;SDS011;57023;52.218;5.158;2023-05-07T07:39:32;23.27;;;19.65;;
69754;SDS011;57023;52.218;5.158;2023-05-07T07:41:58;26.92;;;20.63;;
69754;SDS011;57023;52.218;5.158;2023-05-07T07:44:23;26.90;;;19.83;;
69754;SDS011;57023;52.218;5.158;2023-05-07T07:46:48;24.30;;;19.65;;
69754;SDS011;57023;52.218;5.158;2023-05-07T07:49:14;25.25;;;20.40;;
69754;SDS011;57023;52.218;5.158;2023-05-07T07:51:40;24.33;;;20.02;;
69754;SDS011;57023;52.218;5.158;2023-05-07T07:54:06;24.23;;;19.27;;
69754;SDS011;57023;52.218;5.158;2023-05-07T07:56:34;25.20;;;19.00;;
69754;SDS011;57023;52.218;5.158;2023-05-07T07:58:59;24.50;;;18.45;;
69754;SDS011;57023;52.218;5.158;2023-05-07T08:01:25;24.40;;;19.63;;
69754;SDS011;57023;52.218;5.158;2023-05-07T08:03:50;23.70;;;19.88;;
69754;SDS011;57023;52.218;5.158;2023-05-07T08:06:16;24.30;;;20.05;;
69754;SDS011;57023;52.218;5.158;2023-05-07T08:08:41;25.65;;;20.00;;
69754;SDS011;57023;52.218;5.158;2023-05-07T08:11:07;25.25;;;20.48;;
69754;SDS011;57023;52.218;5.158;2023-05-07T08:13:32;25.98;;;20.15;;
69754;SDS011;57023;52.218;5.158;2023-05-07T08:15:57;23.92;;;20.05;;
69754;SDS011;57023;52.218;5.158;2023-05-07T08:18:23;21.73;;;18.67;;
69754;SDS011;57023;52.218;5.158;2023-05-07T08:20:49;24.83;;;20.83;;
69754;SDS011;57023;52.218;5.158;2023-05-07T08:23:15;24.63;;;20.33;;
69754;SDS011;57023;52.218;5.158;2023-05-07T08:25:40;25.58;;;20.05;;
69754;SDS011;57023;52.218;5.158;2023-05-07T08:28:07;26.45;;;20.60;;
69754;SDS011;57023;52.218;5.158;2023-05-07T08:30:32;25.42;;;19.98;;
69754;SDS011;57023;52.218;5.158;2023-05-07T08:32:58;23.92;;;20.35;;
69754;SDS011;57023;52.218;5.158;2023-05-07T08:35:23;22.95;;;19.35;;
69754;SDS011;57023;52.218;5.158;2023-05-07T08:37:50;23.42;;;20.17;;
69754;SDS011;57023;52.218;5.158;2023-05-07T08:40:15;23.55;;;19.98;;
69754;SDS011;57023;52.218;5.158;2023-05-07T08:42:41;23.13;;;20.00;;
69754;SDS011;57023;52.218;5.158;2023-05-07T08:45:10;25.25;;;19.05;;
69754;SDS011;57023;52.218;5.158;2023-05-07T08:47:40;22.40;;;20.00;;
69754;SDS011;57023;52.218;5.158;2023-05-07T08:50:10;21.65;;;19.10;;
69754;SDS011;57023;52.218;5.158;2023-05-07T08:52:36;22.05;;;18.02;;
69754;SDS011;57023;52.218;5.158;2023-05-07T08:55:03;20.27;;;18.08;;
69754;SDS011;57023;52.218;5.158;2023-05-07T08:57:28;21.15;;;17.60;;
69754;SDS011;57023;52.218;5.158;2023-05-07T08:59:55;21.15;;;18.25;;
69754;SDS011;57023;52.218;5.158;2023-05-07T09:02:20;20.92;;;18.33;;
69754;SDS011;57023;52.218;5.158;2023-05-07T09:04:46;20.05;;;17.20;;
69754;SDS011;57023;52.218;5.158;2023-05-07T09:07:11;19.50;;;16.85;;
69754;SDS011;57023;52.218;5.158;2023-05-07T09:09:39;17.50;;;14.80;;
69754;SDS011;57023;52.218;5.158;2023-05-07T09:12:04;17.08;;;15.20;;
69754;SDS011;57023;52.218;5.158;2023-05-07T09:14:30;18.38;;;15.98;;
69754;SDS011;57023;52.218;5.158;2023-05-07T09:16:56;16.90;;;14.57;;
69754;SDS011;57023;52.218;5.158;2023-05-07T09:19:22;14.88;;;13.30;;
69754;SDS011;57023;52.218;5.158;2023-05-07T09:21:48;15.60;;;13.93;;
69754;SDS011;57023;52.218;5.158;2023-05-07T09:24:15;17.15;;;15.35;;
69754;SDS011;57023;52.218;5.158;2023-05-07T09:26:40;17.02;;;15.23;;
69754;SDS011;57023;52.218;5.158;2023-05-07T09:29:06;16.23;;;13.60;;
69754;SDS011;57023;52.218;5.158;2023-05-07T09:31:32;14.32;;;12.35;;
69754;SDS011;57023;52.218;5.158;2023-05-07T09:33:57;13.73;;;11.97;;
69754;SDS011;57023;52.218;5.158;2023-05-07T09:36:23;13.50;;;12.10;;
69754;SDS011;57023;52.218;5.158;2023-05-07T09:38:49;13.48;;;12.02;;
69754;SDS011;57023;52.218;5.158;2023-05-07T09:41:14;14.43;;;12.60;;
69754;SDS011;57023;52.218;5.158;2023-05-07T09:43:40;15.33;;;12.70;;
69754;SDS011;57023;52.218;5.158;2023-05-07T09:46:06;15.40;;;13.80;;
69754;SDS011;57023;52.218;5.158;2023-05-07T09:48:42;15.77;;;14.18;;
69754;SDS011;57023;52.218;5.158;2023-05-07T09:51:43;15.65;;;12.85;;
69754;SDS011;57023;52.218;5.158;2023-05-07T09:54:05;15.30;;;12.27;;
69754;SDS011;57023;52.218;5.158;2023-05-07T09:56:31;12.50;;;11.05;;
69754;SDS011;57023;52.218;5.158;2023-05-07T09:59:00;13.98;;;12.57;;
69754;SDS011;57023;52.218;5.158;2023-05-07T10:01:25;13.60;;;12.18;;
69754;SDS011;57023;52.218;5.158;2023-05-07T10:03:52;13.65;;;11.27;;
69754;SDS011;57023;52.218;5.158;2023-05-07T10:06:17;13.55;;;11.90;;
69754;SDS011;57023;52.218;5.158;2023-05-07T10:08:45;12.90;;;10.98;;
69754;SDS011;57023;52.218;5.158;2023-05-07T10:11:10;11.07;;;9.93;;
69754;SDS011;57023;52.218;5.158;2023-05-07T10:13:36;13.57;;;10.77;;
69754;SDS011;57023;52.218;5.158;2023-05-07T10:16:03;11.73;;;10.52;;
69754;SDS011;57023;52.218;5.158;2023-05-07T10:18:30;13.38;;;8.77;;
69754;SDS011;57023;52.218;5.158;2023-05-07T10:20:58;12.85;;;9.30;;
69754;SDS011;57023;52.218;5.158;2023-05-07T10:23:27;10.82;;;9.15;;
69754;SDS011;57023;52.218;5.158;2023-05-07T10:25:53;10.97;;;9.53;;
69754;SDS011;57023;52.218;5.158;2023-05-07T10:28:19;12.00;;;10.27;;
69754;SDS011;57023;52.218;5.158;2023-05-07T10:33:34;11.68;;;9.80;;
69754;SDS011;57023;52.218;5.158;2023-05-07T10:36:00;12.47;;;10.47;;
69754;SDS011;57023;52.218;5.158;2023-05-07T10:38:29;11.75;;;9.88;;
69754;SDS011;57023;52.218;5.158;2023-05-07T10:40:55;10.97;;;9.87;;
69754;SDS011;57023;52.218;5.158;2023-05-07T10:43:20;12.80;;;10.13;;
69754;SDS011;57023;52.218;5.158;2023-05-07T10:51:28;12.48;;;9.75;;
69754;SDS011;57023;52.218;5.158;2023-05-07T10:56:36;8.32;;;7.45;;
69754;SDS011;57023;52.218;5.158;2023-05-07T10:59:30;11.13;;;8.93;;
69754;SDS011;57023;52.218;5.158;2023-05-07T11:01:57;9.23;;;7.03;;
69754;SDS011;57023;52.218;5.158;2023-05-07T11:04:23;8.45;;;5.32;;
69754;SDS011;57023;52.218;5.158;2023-05-07T11:15:01;9.35;;;6.40;;
69754;SDS011;57023;52.218;5.158;2023-05-07T11:17:30;8.32;;;4.68;;
69754;SDS011;57023;52.218;5.158;2023-05-07T11:19:57;9.27;;;5.10;;
69754;SDS011;57023;52.218;5.158;2023-05-07T11:24:57;5.60;;;4.18;;
69754;SDS011;57023;52.218;5.158;2023-05-07T11:27:24;6.95;;;4.10;;
69754;SDS011;57023;52.218;5.158;2023-05-07T11:29:50;6.78;;;4.10;;
69754;SDS011;57023;52.218;5.158;2023-05-07T11:32:25;7.25;;;4.10;;
69754;SDS011;57023;52.218;5.158;2023-05-07T11:34:55;6.83;;;4.47;;
69754;SDS011;57023;52.218;5.158;2023-05-07T11:37:22;8.43;;;4.53;;
69754;SDS011;57023;52.218;5.158;2023-05-07T11:39:48;9.75;;;4.82;;
69754;SDS011;57023;52.218;5.158;2023-05-07T11:42:30;7.10;;;4.00;;
69754;SDS011;57023;52.218;5.158;2023-05-07T11:44:55;9.18;;;4.25;;
69754;SDS011;57023;52.218;5.158;2023-05-07T11:47:21;11.70;;;3.53;;
69754;SDS011;57023;52.218;5.158;2023-05-07T11:49:53;7.53;;;4.47;;
69754;SDS011;57023;52.218;5.158;2023-05-07T11:52:20;7.25;;;4.30;;
69754;SDS011;57023;52.218;5.158;2023-05-07T11:54:50;6.57;;;4.00;;
69754;SDS011;57023;52.218;5.158;2023-05-07T11:57:19;5.70;;;3.60;;
69754;SDS011;57023;52.218;5.158;2023-05-07T11:59:44;6.78;;;3.80;;
69754;SDS011;57023;52.218;5.158;2023-05-07T12:04:38;6.50;;;3.50;;
69754;SDS011;57023;52.218;5.158;2023-05-07T12:07:04;5.77;;;3.43;;
69754;SDS011;57023;52.218;5.158;2023-05-07T12:09:29;6.27;;;3.17;;
69754;SDS011;57023;52.218;5.158;2023-05-07T12:11:58;6.47;;;3.70;;
69754;SDS011;57023;52.218;5.158;2023-05-07T12:14:28;6.20;;;3.65;;
69754;SDS011;57023;52.218;5.158;2023-05-07T12:16:54;6.60;;;3.70;;
69754;SDS011;57023;52.218;5.158;2023-05-07T12:19:19;6.43;;;4.27;;
69754;SDS011;57023;52.218;5.158;2023-05-07T12:21:45;6.72;;;4.20;;
69754;SDS011;57023;52.218;5.158;2023-05-07T12:24:10;6.57;;;4.23;;
69754;SDS011;57023;52.218;5.158;2023-05-07T12:26:39;7.10;;;4.43;;
69754;SDS011;57023;52.218;5.158;2023-05-07T12:29:05;6.70;;;3.67;;
69754;SDS011;57023;52.218;5.158;2023-05-07T12:31:31;7.40;;;3.90;;
69754;SDS011;57023;52.218;5.158;2023-05-07T12:33:56;5.83;;;3.60;;
69754;SDS011;57023;52.218;5.158;2023-05-07T12:36:35;7.47;;;3.90;;
69754;SDS011;57023;52.218;5.158;2023-05-07T12:39:01;7.57;;;4.20;;
69754;SDS011;57023;52.218;5.158;2023-05-07T12:41:36;6.83;;;4.03;;
69754;SDS011;57023;52.218;5.158;2023-05-07T12:44:17;7.65;;;4.30;;
69754;SDS011;57023;52.218;5.158;2023-05-07T12:46:42;7.43;;;4.00;;
69754;SDS011;57023;52.218;5.158;2023-05-07T12:49:07;8.23;;;4.50;;
69754;SDS011;57023;52.218;5.158;2023-05-07T12:51:34;7.00;;;4.82;;
69754;SDS011;57023;52.218;5.158;2023-05-07T12:53:59;10.10;;;5.23;;
69754;SDS011;57023;52.218;5.158;2023-05-07T12:56:25;7.33;;;5.20;;
69754;SDS011;57023;52.218;5.158;2023-05-07T12:58:50;8.43;;;5.40;;
69754;SDS011;57023;52.218;5.158;2023-05-07T13:01:15;10.07;;;5.50;;
69754;SDS011;57023;52.218;5.158;2023-05-07T13:03:47;8.32;;;5.50;;
69754;SDS011;57023;52.218;5.158;2023-05-07T13:06:13;8.35;;;5.30;;
69754;SDS011;57023;52.218;5.158;2023-05-07T13:08:39;7.10;;;5.00;;
69754;SDS011;57023;52.218;5.158;2023-05-07T13:11:08;8.02;;;5.50;;
69754;SDS011;57023;52.218;5.158;2023-05-07T13:13:35;7.90;;;5.40;;
69754;SDS011;57023;52.218;5.158;2023-05-07T13:16:02;8.15;;;5.25;;
69754;SDS011;57023;52.218;5.158;2023-05-07T13:18:29;8.80;;;5.20;;
69754;SDS011;57023;52.218;5.158;2023-05-07T13:20:55;7.70;;;5.07;;
69754;SDS011;57023;52.218;5.158;2023-05-07T13:23:20;7.17;;;5.13;;
69754;SDS011;57023;52.218;5.158;2023-05-07T13:25:49;10.13;;;5.30;;
69754;SDS011;57023;52.218;5.158;2023-05-07T13:28:15;10.15;;;5.28;;
69754;SDS011;57023;52.218;5.158;2023-05-07T13:30:40;9.53;;;5.67;;
69754;SDS011;57023;52.218;5.158;2023-05-07T13:33:06;8.83;;;5.40;;
69754;SDS011;57023;52.218;5.158;2023-05-07T13:35:31;9.43;;;6.77;;
69754;SDS011;57023;52.218;5.158;2023-05-07T13:37:56;10.50;;;6.63;;
69754;SDS011;57023;52.218;5.158;2023-05-07T13:40:22;9.83;;;6.53;;
69754;SDS011;57023;52.218;5.158;2023-05-07T13:42:48;9.23;;;6.90;;
69754;SDS011;57023;52.218;5.158;2023-05-07T13:45:13;11.97;;;6.53;;
69754;SDS011;57023;52.218;5.158;2023-05-07T13:47:40;11.20;;;6.50;;
69754;SDS011;57023;52.218;5.158;2023-05-07T13:52:32;10.68;;;7.10;;
69754;SDS011;57023;52.218;5.158;2023-05-07T13:55:00;10.30;;;6.83;;
69754;SDS011;57023;52.218;5.158;2023-05-07T13:57:25;11.82;;;9.77;;
69754;SDS011;57023;52.218;5.158;2023-05-07T13:59:50;13.60;;;9.37;;
69754;SDS011;57023;52.218;5.158;2023-05-07T14:02:16;12.67;;;10.10;;
69754;SDS011;57023;52.218;5.158;2023-05-07T14:04:42;12.10;;;9.82;;
69754;SDS011;57023;52.218;5.158;2023-05-07T14:07:07;12.20;;;9.23;;
69754;SDS011;57023;52.218;5.158;2023-05-07T14:09:33;12.10;;;9.40;;
69754;SDS011;57023;52.218;5.158;2023-05-07T14:11:58;14.15;;;9.85;;
69754;SDS011;57023;52.218;5.158;2023-05-07T14:14:26;12.80;;;9.77;;
69754;SDS011;57023;52.218;5.158;2023-05-07T14:16:53;13.13;;;9.50;;
69754;SDS011;57023;52.218;5.158;2023-05-07T14:19:18;11.70;;;8.82;;
69754;SDS011;57023;52.218;5.158;2023-05-07T14:21:43;13.05;;;8.38;;
69754;SDS011;57023;52.218;5.158;2023-05-07T14:24:11;13.43;;;8.68;;
69754;SDS011;57023;52.218;5.158;2023-05-07T14:26:37;9.77;;;7.88;;
69754;SDS011;57023;52.218;5.158;2023-05-07T14:29:02;13.75;;;8.85;;
69754;SDS011;57023;52.218;5.158;2023-05-07T14:31:28;13.65;;;9.38;;
69754;SDS011;57023;52.218;5.158;2023-05-07T14:33:53;16.55;;;10.60;;
69754;SDS011;57023;52.218;5.158;2023-05-07T14:36:19;15.90;;;11.65;;
69754;SDS011;57023;52.218;5.158;2023-05-07T14:38:46;14.60;;;11.00;;
69754;SDS011;57023;52.218;5.158;2023-05-07T14:41:12;15.98;;;10.25;;
69754;SDS011;57023;52.218;5.158;2023-05-07T14:43:37;12.65;;;7.97;;
69754;SDS011;57023;52.218;5.158;2023-05-07T14:46:02;14.23;;;9.82;;
69754;SDS011;57023;52.218;5.158;2023-05-07T14:48:30;15.32;;;11.10;;
69754;SDS011;57023;52.218;5.158;2023-05-07T14:50:59;15.77;;;11.93;;